sensor_id;sensor_type;location;lat;lon;timestamp;P1;durP1;ratioP1;P2;durP2;ratioP2
7308;SDS011;3695;53.330;9.876;2022-08-21T00:00:18;4.90;;;2.97;;
7308;SDS011;3695;53.330;9.876;2022-08-21T00:02:49;7.83;;;3.00;;
7308;SDS011;3695;53.330;9.876;2022-08-21T00:05:18;5.77;;;2.60;;
7308;SDS011;3695;53.330;9.876;2022-08-21T00:07:45;7.03;;;2.90;;
7308;SDS011;3695;53.330;9.876;2022-08-21T00:10:12;4.17;;;3.20;;
7308;SDS011;3695;53.330;9.876;2022-08-21T00:12:39;6.67;;;3.17;;
7308;SDS011;3695;53.330;9.876;2022-08-21T00:15:07;4.00;;;2.30;;
7308;SDS011;3695;53.330;9.876;2022-08-21T00:17:36;6.70;;;3.00;;
7308;SDS011;3695;53.330;9.876;2022-08-21T00:20:03;7.10;;;3.20;;
7308;SDS011;3695;53.330;9.876;2022-08-21T00:22:33;8.87;;;3.50;;
7308;SDS011;3695;53.330;9.876;2022-08-21T00:25:00;6.83;;;3.33;;
7308;SDS011;3695;53.330;9.876;2022-08-21T00:27:27;6.70;;;3.13;;
7308;SDS011;3695;53.330;9.876;2022-08-21T00:29:53;5.47;;;3.10;;
7308;SDS011;3695;53.330;9.876;2022-08-21T00:32:20;5.57;;;3.20;;
7308;SDS011;3695;53.330;9.876;2022-08-21T00:34:48;7.60;;;3.07;;
7308;SDS011;3695;53.330;9.876;2022-08-21T00:37:15;7.53;;;3.03;;
7308;SDS011;3695;53.330;9.876;2022-08-21T00:39:43;8.50;;;3.70;;
7308;SDS011;3695;53.330;9.876;2022-08-21T00:42:09;8.23;;;4.17;;
7308;SDS011;3695;53.330;9.876;2022-08-21T00:44:39;8.87;;;3.70;;
7308;SDS011;3695;53.330;9.876;2022-08-21T00:47:06;9.20;;;4.60;;
7308;SDS011;3695;53.330;9.876;2022-08-21T00:49:33;11.47;;;3.70;;
7308;SDS011;3695;53.330;9.876;2022-08-21T00:52:00;8.37;;;3.67;;
7308;SDS011;3695;53.330;9.876;2022-08-21T00:54:28;7.43;;;3.80;;
7308;SDS011;3695;53.330;9.876;2022-08-21T00:56:59;5.67;;;3.90;;
7308;SDS011;3695;53.330;9.876;2022-08-21T00:59:28;6.87;;;3.77;;
7308;SDS011;3695;53.330;9.876;2022-08-21T01:01:57;8.10;;;3.93;;
7308;SDS011;3695;53.330;9.876;2022-08-21T01:04:24;8.63;;;3.83;;
7308;SDS011;3695;53.330;9.876;2022-08-21T01:06:51;6.33;;;3.03;;
7308;SDS011;3695;53.330;9.876;2022-08-21T01:09:20;9.30;;;3.17;;
7308;SDS011;3695;53.330;9.876;2022-08-21T01:11:46;5.07;;;3.47;;
7308;SDS011;3695;53.330;9.876;2022-08-21T01:14:14;4.43;;;3.20;;
7308;SDS011;3695;53.330;9.876;2022-08-21T01:16:45;5.37;;;2.97;;
7308;SDS011;3695;53.330;9.876;2022-08-21T01:19:14;5.20;;;3.00;;
7308;SDS011;3695;53.330;9.876;2022-08-21T01:21:43;5.67;;;2.70;;
7308;SDS011;3695;53.330;9.876;2022-08-21T01:24:10;12.07;;;3.40;;
7308;SDS011;3695;53.330;9.876;2022-08-21T01:26:37;7.30;;;3.30;;
7308;SDS011;3695;53.330;9.876;2022-08-21T01:29:13;7.20;;;3.33;;
7308;SDS011;3695;53.330;9.876;2022-08-21T01:31:46;4.67;;;2.80;;
7308;SDS011;3695;53.330;9.876;2022-08-21T01:34:12;4.17;;;2.70;;
7308;SDS011;3695;53.330;9.876;2022-08-21T01:36:41;5.07;;;2.70;;
7308;SDS011;3695;53.330;9.876;2022-08-21T01:39:09;8.63;;;2.53;;
7308;SDS011;3695;53.330;9.876;2022-08-21T01:41:35;5.30;;;2.27;;
7308;SDS011;3695;53.330;9.876;2022-08-21T01:44:02;5.83;;;2.90;;
7308;SDS011;3695;53.330;9.876;2022-08-21T01:46:29;7.47;;;3.30;;
7308;SDS011;3695;53.330;9.876;2022-08-21T01:48:56;7.27;;;3.10;;
7308;SDS011;3695;53.330;9.876;2022-08-21T01:51:22;4.87;;;2.50;;
7308;SDS011;3695;53.330;9.876;2022-08-21T01:53:49;5.03;;;2.57;;
7308;SDS011;3695;53.330;9.876;2022-08-21T01:56:17;4.57;;;2.50;;
7308;SDS011;3695;53.330;9.876;2022-08-21T01:58:45;5.00;;;2.57;;
7308;SDS011;3695;53.330;9.876;2022-08-21T02:01:12;4.13;;;2.77;;
7308;SDS011;3695;53.330;9.876;2022-08-21T02:03:40;8.53;;;3.23;;
7308;SDS011;3695;53.330;9.876;2022-08-21T02:06:10;4.00;;;2.50;;
7308;SDS011;3695;53.330;9.876;2022-08-21T02:08:39;6.33;;;2.80;;
7308;SDS011;3695;53.330;9.876;2022-08-21T02:11:06;4.63;;;2.60;;
7308;SDS011;3695;53.330;9.876;2022-08-21T02:13:34;7.30;;;3.30;;
7308;SDS011;3695;53.330;9.876;2022-08-21T02:16:00;7.87;;;2.83;;
7308;SDS011;3695;53.330;9.876;2022-08-21T02:18:27;4.97;;;2.50;;
7308;SDS011;3695;53.330;9.876;2022-08-21T02:20:54;4.03;;;2.53;;
7308;SDS011;3695;53.330;9.876;2022-08-21T02:23:21;5.87;;;2.73;;
7308;SDS011;3695;53.330;9.876;2022-08-21T02:25:49;6.50;;;2.73;;
7308;SDS011;3695;53.330;9.876;2022-08-21T02:28:15;5.70;;;2.80;;
7308;SDS011;3695;53.330;9.876;2022-08-21T02:30:44;6.40;;;2.60;;
7308;SDS011;3695;53.330;9.876;2022-08-21T02:33:12;7.93;;;2.73;;
7308;SDS011;3695;53.330;9.876;2022-08-21T02:35:40;8.63;;;2.70;;
7308;SDS011;3695;53.330;9.876;2022-08-21T02:38:08;4.77;;;2.33;;
7308;SDS011;3695;53.330;9.876;2022-08-21T02:40:37;5.43;;;3.00;;
7308;SDS011;3695;53.330;9.876;2022-08-21T02:43:05;4.67;;;2.67;;
7308;SDS011;3695;53.330;9.876;2022-08-21T02:45:33;4.93;;;2.93;;
7308;SDS011;3695;53.330;9.876;2022-08-21T02:48:03;4.33;;;2.80;;
7308;SDS011;3695;53.330;9.876;2022-08-21T02:50:32;5.03;;;2.87;;
7308;SDS011;3695;53.330;9.876;2022-08-21T02:53:00;9.37;;;3.23;;
7308;SDS011;3695;53.330;9.876;2022-08-21T02:55:28;8.20;;;3.40;;
7308;SDS011;3695;53.330;9.876;2022-08-21T02:57:56;5.70;;;2.60;;
7308;SDS011;3695;53.330;9.876;2022-08-21T03:00:25;6.80;;;2.97;;
7308;SDS011;3695;53.330;9.876;2022-08-21T03:02:53;5.10;;;2.90;;
7308;SDS011;3695;53.330;9.876;2022-08-21T03:05:23;8.00;;;2.73;;
7308;SDS011;3695;53.330;9.876;2022-08-21T03:07:50;6.40;;;2.67;;
7308;SDS011;3695;53.330;9.876;2022-08-21T03:10:17;6.00;;;4.00;;
7308;SDS011;3695;53.330;9.876;2022-08-21T03:12:45;5.07;;;2.80;;
7308;SDS011;3695;53.330;9.876;2022-08-21T03:15:14;8.90;;;2.93;;
7308;SDS011;3695;53.330;9.876;2022-08-21T03:17:42;7.43;;;2.70;;
7308;SDS011;3695;53.330;9.876;2022-08-21T03:20:09;4.40;;;2.60;;
7308;SDS011;3695;53.330;9.876;2022-08-21T03:22:37;6.33;;;2.77;;
7308;SDS011;3695;53.330;9.876;2022-08-21T03:25:04;7.67;;;3.17;;
7308;SDS011;3695;53.330;9.876;2022-08-21T03:27:31;5.63;;;3.00;;
7308;SDS011;3695;53.330;9.876;2022-08-21T03:29:59;6.87;;;2.93;;
7308;SDS011;3695;53.330;9.876;2022-08-21T03:32:26;7.13;;;3.07;;
7308;SDS011;3695;53.330;9.876;2022-08-21T03:34:54;8.00;;;3.77;;
7308;SDS011;3695;53.330;9.876;2022-08-21T03:37:20;7.03;;;3.57;;
7308;SDS011;3695;53.330;9.876;2022-08-21T03:39:48;6.57;;;2.80;;
7308;SDS011;3695;53.330;9.876;2022-08-21T03:42:14;6.20;;;2.80;;
7308;SDS011;3695;53.330;9.876;2022-08-21T03:44:41;6.07;;;2.70;;
7308;SDS011;3695;53.330;9.876;2022-08-21T03:47:07;4.30;;;2.50;;
7308;SDS011;3695;53.330;9.876;2022-08-21T03:49:34;5.57;;;2.67;;
7308;SDS011;3695;53.330;9.876;2022-08-21T03:52:01;7.47;;;2.77;;
7308;SDS011;3695;53.330;9.876;2022-08-21T03:54:27;6.20;;;2.83;;
7308;SDS011;3695;53.330;9.876;2022-08-21T03:56:55;7.20;;;2.57;;
7308;SDS011;3695;53.330;9.876;2022-08-21T03:59:22;5.67;;;2.80;;
7308;SDS011;3695;53.330;9.876;2022-08-21T04:01:52;5.40;;;2.70;;
7308;SDS011;3695;53.330;9.876;2022-08-21T04:04:19;8.97;;;3.33;;
7308;SDS011;3695;53.330;9.876;2022-08-21T04:06:46;6.13;;;2.67;;
7308;SDS011;3695;53.330;9.876;2022-08-21T04:09:12;8.67;;;3.10;;
7308;SDS011;3695;53.330;9.876;2022-08-21T04:11:39;5.83;;;2.53;;
7308;SDS011;3695;53.330;9.876;2022-08-21T04:14:07;7.57;;;3.33;;
7308;SDS011;3695;53.330;9.876;2022-08-21T04:16:33;4.57;;;2.20;;
7308;SDS011;3695;53.330;9.876;2022-08-21T04:19:00;4.57;;;2.60;;
7308;SDS011;3695;53.330;9.876;2022-08-21T04:21:26;4.83;;;2.50;;
7308;SDS011;3695;53.330;9.876;2022-08-21T04:23:53;5.20;;;2.43;;
7308;SDS011;3695;53.330;9.876;2022-08-21T04:26:20;5.73;;;2.87;;
7308;SDS011;3695;53.330;9.876;2022-08-21T04:28:46;3.63;;;2.30;;
7308;SDS011;3695;53.330;9.876;2022-08-21T04:31:14;4.10;;;2.23;;
7308;SDS011;3695;53.330;9.876;2022-08-21T04:33:41;6.60;;;2.53;;
7308;SDS011;3695;53.330;9.876;2022-08-21T04:36:07;9.17;;;2.77;;
7308;SDS011;3695;53.330;9.876;2022-08-21T04:38:34;6.00;;;2.57;;
7308;SDS011;3695;53.330;9.876;2022-08-21T04:41:01;10.67;;;3.63;;
7308;SDS011;3695;53.330;9.876;2022-08-21T04:43:27;4.17;;;2.47;;
7308;SDS011;3695;53.330;9.876;2022-08-21T04:45:53;4.60;;;2.60;;
7308;SDS011;3695;53.330;9.876;2022-08-21T04:48:22;6.90;;;2.87;;
7308;SDS011;3695;53.330;9.876;2022-08-21T04:50:50;5.43;;;2.50;;
7308;SDS011;3695;53.330;9.876;2022-08-21T04:53:20;6.20;;;3.03;;
7308;SDS011;3695;53.330;9.876;2022-08-21T04:55:50;5.90;;;2.50;;
7308;SDS011;3695;53.330;9.876;2022-08-21T04:58:19;7.30;;;2.80;;
7308;SDS011;3695;53.330;9.876;2022-08-21T05:00:47;4.83;;;2.20;;
7308;SDS011;3695;53.330;9.876;2022-08-21T05:03:14;4.17;;;2.73;;
7308;SDS011;3695;53.330;9.876;2022-08-21T05:05:44;4.07;;;2.77;;
7308;SDS011;3695;53.330;9.876;2022-08-21T05:08:11;6.83;;;2.57;;
7308;SDS011;3695;53.330;9.876;2022-08-21T05:10:40;5.27;;;2.20;;
7308;SDS011;3695;53.330;9.876;2022-08-21T05:13:08;6.07;;;2.50;;
7308;SDS011;3695;53.330;9.876;2022-08-21T05:15:34;4.97;;;2.90;;
7308;SDS011;3695;53.330;9.876;2022-08-21T05:18:02;5.00;;;2.50;;
7308;SDS011;3695;53.330;9.876;2022-08-21T05:20:28;7.33;;;2.53;;
7308;SDS011;3695;53.330;9.876;2022-08-21T05:22:56;4.93;;;2.80;;
7308;SDS011;3695;53.330;9.876;2022-08-21T05:25:23;6.27;;;3.20;;
7308;SDS011;3695;53.330;9.876;2022-08-21T05:27:50;5.87;;;3.17;;
7308;SDS011;3695;53.330;9.876;2022-08-21T05:30:16;5.00;;;3.60;;
7308;SDS011;3695;53.330;9.876;2022-08-21T05:32:43;12.77;;;4.03;;
7308;SDS011;3695;53.330;9.876;2022-08-21T05:35:09;5.03;;;2.97;;
7308;SDS011;3695;53.330;9.876;2022-08-21T05:37:36;5.13;;;3.40;;
7308;SDS011;3695;53.330;9.876;2022-08-21T05:40:05;5.60;;;2.80;;
7308;SDS011;3695;53.330;9.876;2022-08-21T05:42:32;6.90;;;2.70;;
7308;SDS011;3695;53.330;9.876;2022-08-21T05:44:59;5.83;;;2.80;;
7308;SDS011;3695;53.330;9.876;2022-08-21T05:47:25;5.30;;;2.13;;
7308;SDS011;3695;53.330;9.876;2022-08-21T05:49:52;3.60;;;2.40;;
7308;SDS011;3695;53.330;9.876;2022-08-21T05:52:18;7.27;;;2.70;;
7308;SDS011;3695;53.330;9.876;2022-08-21T05:54:46;3.57;;;2.80;;
7308;SDS011;3695;53.330;9.876;2022-08-21T05:57:14;6.63;;;2.70;;
7308;SDS011;3695;53.330;9.876;2022-08-21T05:59:41;8.33;;;2.77;;
7308;SDS011;3695;53.330;9.876;2022-08-21T06:02:08;4.70;;;2.33;;
7308;SDS011;3695;53.330;9.876;2022-08-21T06:04:36;6.07;;;2.70;;
7308;SDS011;3695;53.330;9.876;2022-08-21T06:07:02;6.13;;;2.50;;
7308;SDS011;3695;53.330;9.876;2022-08-21T06:09:29;3.13;;;2.10;;
7308;SDS011;3695;53.330;9.876;2022-08-21T06:11:56;6.00;;;2.10;;
7308;SDS011;3695;53.330;9.876;2022-08-21T06:14:24;5.73;;;2.43;;
7308;SDS011;3695;53.330;9.876;2022-08-21T06:16:50;5.63;;;2.10;;
7308;SDS011;3695;53.330;9.876;2022-08-21T06:19:16;8.80;;;3.70;;
7308;SDS011;3695;53.330;9.876;2022-08-21T06:21:43;5.07;;;3.60;;
7308;SDS011;3695;53.330;9.876;2022-08-21T06:24:09;6.33;;;3.17;;
7308;SDS011;3695;53.330;9.876;2022-08-21T06:26:36;4.60;;;2.37;;
7308;SDS011;3695;53.330;9.876;2022-08-21T06:29:03;4.60;;;2.27;;
7308;SDS011;3695;53.330;9.876;2022-08-21T06:31:30;4.23;;;2.13;;
7308;SDS011;3695;53.330;9.876;2022-08-21T06:33:57;3.23;;;2.00;;
7308;SDS011;3695;53.330;9.876;2022-08-21T06:36:23;6.73;;;2.47;;
7308;SDS011;3695;53.330;9.876;2022-08-21T06:38:50;6.30;;;2.60;;
7308;SDS011;3695;53.330;9.876;2022-08-21T06:41:16;3.70;;;2.37;;
7308;SDS011;3695;53.330;9.876;2022-08-21T06:43:43;4.90;;;3.33;;
7308;SDS011;3695;53.330;9.876;2022-08-21T06:46:09;7.87;;;2.73;;
7308;SDS011;3695;53.330;9.876;2022-08-21T06:48:37;4.53;;;2.30;;
7308;SDS011;3695;53.330;9.876;2022-08-21T06:51:04;4.73;;;2.93;;
7308;SDS011;3695;53.330;9.876;2022-08-21T06:53:31;4.27;;;2.30;;
7308;SDS011;3695;53.330;9.876;2022-08-21T06:55:57;3.73;;;2.33;;
7308;SDS011;3695;53.330;9.876;2022-08-21T06:58:24;5.07;;;2.20;;
7308;SDS011;3695;53.330;9.876;2022-08-21T07:00:51;6.00;;;2.67;;
7308;SDS011;3695;53.330;9.876;2022-08-21T07:03:19;8.47;;;2.27;;
7308;SDS011;3695;53.330;9.876;2022-08-21T07:05:48;3.83;;;1.97;;
7308;SDS011;3695;53.330;9.876;2022-08-21T07:08:15;6.00;;;2.00;;
7308;SDS011;3695;53.330;9.876;2022-08-21T07:10:42;4.53;;;2.27;;
7308;SDS011;3695;53.330;9.876;2022-08-21T07:13:08;4.27;;;1.60;;
7308;SDS011;3695;53.330;9.876;2022-08-21T07:15:35;4.23;;;1.67;;
7308;SDS011;3695;53.330;9.876;2022-08-21T07:18:02;7.70;;;1.97;;
7308;SDS011;3695;53.330;9.876;2022-08-21T07:20:29;4.30;;;1.50;;
7308;SDS011;3695;53.330;9.876;2022-08-21T07:22:58;3.20;;;1.47;;
7308;SDS011;3695;53.330;9.876;2022-08-21T07:25:27;2.20;;;1.67;;
7308;SDS011;3695;53.330;9.876;2022-08-21T07:27:54;6.53;;;1.80;;
7308;SDS011;3695;53.330;9.876;2022-08-21T07:30:20;3.10;;;1.60;;
7308;SDS011;3695;53.330;9.876;2022-08-21T07:32:47;2.90;;;1.50;;
7308;SDS011;3695;53.330;9.876;2022-08-21T07:35:14;3.63;;;1.90;;
7308;SDS011;3695;53.330;9.876;2022-08-21T07:37:41;3.83;;;1.67;;
7308;SDS011;3695;53.330;9.876;2022-08-21T07:40:09;5.67;;;1.60;;
7308;SDS011;3695;53.330;9.876;2022-08-21T07:42:39;8.57;;;1.77;;
7308;SDS011;3695;53.330;9.876;2022-08-21T07:45:06;5.13;;;1.90;;
7308;SDS011;3695;53.330;9.876;2022-08-21T07:47:33;7.17;;;1.83;;
7308;SDS011;3695;53.330;9.876;2022-08-21T07:50:00;5.63;;;1.85;;
7308;SDS011;3695;53.330;9.876;2022-08-21T07:52:26;3.93;;;2.10;;
7308;SDS011;3695;53.330;9.876;2022-08-21T07:54:53;7.03;;;1.50;;
7308;SDS011;3695;53.330;9.876;2022-08-21T07:57:20;6.55;;;2.85;;
7308;SDS011;3695;53.330;9.876;2022-08-21T07:59:47;2.80;;;1.30;;
7308;SDS011;3695;53.330;9.876;2022-08-21T08:02:21;6.18;;;1.85;;
7308;SDS011;3695;53.330;9.876;2022-08-21T08:04:48;4.03;;;1.75;;
7308;SDS011;3695;53.330;9.876;2022-08-21T08:07:15;6.50;;;2.03;;
7308;SDS011;3695;53.330;9.876;2022-08-21T08:09:42;6.37;;;1.70;;
7308;SDS011;3695;53.330;9.876;2022-08-21T08:12:09;7.27;;;2.37;;
7308;SDS011;3695;53.330;9.876;2022-08-21T08:14:36;7.18;;;2.17;;
7308;SDS011;3695;53.330;9.876;2022-08-21T08:17:03;2.50;;;1.63;;
7308;SDS011;3695;53.330;9.876;2022-08-21T08:19:29;4.80;;;1.90;;
7308;SDS011;3695;53.330;9.876;2022-08-21T08:21:56;6.72;;;2.00;;
7308;SDS011;3695;53.330;9.876;2022-08-21T08:24:23;4.95;;;2.53;;
7308;SDS011;3695;53.330;9.876;2022-08-21T08:26:49;6.72;;;2.13;;
7308;SDS011;3695;53.330;9.876;2022-08-21T08:29:15;5.95;;;2.45;;
7308;SDS011;3695;53.330;9.876;2022-08-21T08:31:43;6.65;;;2.10;;
7308;SDS011;3695;53.330;9.876;2022-08-21T08:34:10;5.85;;;2.13;;
7308;SDS011;3695;53.330;9.876;2022-08-21T08:36:36;7.90;;;2.22;;
7308;SDS011;3695;53.330;9.876;2022-08-21T08:39:03;5.38;;;2.75;;
7308;SDS011;3695;53.330;9.876;2022-08-21T08:41:31;12.40;;;7.00;;
7308;SDS011;3695;53.330;9.876;2022-08-21T08:44:00;5.53;;;2.38;;
7308;SDS011;3695;53.330;9.876;2022-08-21T08:46:31;7.53;;;2.58;;
7308;SDS011;3695;53.330;9.876;2022-08-21T08:49:05;4.72;;;2.15;;
7308;SDS011;3695;53.330;9.876;2022-08-21T08:51:39;9.82;;;2.65;;
7308;SDS011;3695;53.330;9.876;2022-08-21T08:54:11;9.07;;;2.78;;
7308;SDS011;3695;53.330;9.876;2022-08-21T08:56:41;10.90;;;3.80;;
7308;SDS011;3695;53.330;9.876;2022-08-21T08:59:11;6.63;;;2.55;;
7308;SDS011;3695;53.330;9.876;2022-08-21T09:01:41;3.83;;;2.47;;
7308;SDS011;3695;53.330;9.876;2022-08-21T09:04:10;11.10;;;3.05;;
7308;SDS011;3695;53.330;9.876;2022-08-21T09:06:42;8.57;;;2.97;;
7308;SDS011;3695;53.330;9.876;2022-08-21T09:09:21;7.00;;;2.78;;
7308;SDS011;3695;53.330;9.876;2022-08-21T09:11:57;6.50;;;2.90;;
7308;SDS011;3695;53.330;9.876;2022-08-21T09:14:30;10.68;;;3.22;;
7308;SDS011;3695;53.330;9.876;2022-08-21T09:17:10;8.85;;;2.90;;
7308;SDS011;3695;53.330;9.876;2022-08-21T09:19:50;6.22;;;2.85;;
7308;SDS011;3695;53.330;9.876;2022-08-21T09:22:29;8.00;;;2.67;;
7308;SDS011;3695;53.330;9.876;2022-08-21T09:25:07;9.27;;;2.50;;
7308;SDS011;3695;53.330;9.876;2022-08-21T09:27:38;9.77;;;2.85;;
7308;SDS011;3695;53.330;9.876;2022-08-21T09:30:05;6.53;;;2.53;;
7308;SDS011;3695;53.330;9.876;2022-08-21T09:32:34;8.10;;;2.45;;
7308;SDS011;3695;53.330;9.876;2022-08-21T09:35:05;5.75;;;2.28;;
7308;SDS011;3695;53.330;9.876;2022-08-21T09:37:35;8.18;;;2.03;;
7308;SDS011;3695;53.330;9.876;2022-08-21T09:40:18;9.60;;;4.75;;
7308;SDS011;3695;53.330;9.876;2022-08-21T09:42:57;10.32;;;3.80;;
7308;SDS011;3695;53.330;9.876;2022-08-21T09:45:26;12.10;;;2.67;;
7308;SDS011;3695;53.330;9.876;2022-08-21T09:47:52;6.88;;;2.20;;
7308;SDS011;3695;53.330;9.876;2022-08-21T09:50:22;5.50;;;1.80;;
7308;SDS011;3695;53.330;9.876;2022-08-21T09:52:50;5.63;;;2.72;;
7308;SDS011;3695;53.330;9.876;2022-08-21T09:55:20;7.82;;;2.10;;
7308;SDS011;3695;53.330;9.876;2022-08-21T09:58:10;5.55;;;2.22;;
7308;SDS011;3695;53.330;9.876;2022-08-21T10:00:37;5.63;;;1.92;;
7308;SDS011;3695;53.330;9.876;2022-08-21T10:03:07;4.50;;;1.80;;
7308;SDS011;3695;53.330;9.876;2022-08-21T10:05:37;6.40;;;1.80;;
7308;SDS011;3695;53.330;9.876;2022-08-21T10:08:05;5.05;;;2.15;;
7308;SDS011;3695;53.330;9.876;2022-08-21T10:10:41;5.88;;;2.15;;
7308;SDS011;3695;53.330;9.876;2022-08-21T10:13:09;4.53;;;1.60;;
7308;SDS011;3695;53.330;9.876;2022-08-21T10:15:42;5.38;;;1.67;;
7308;SDS011;3695;53.330;9.876;2022-08-21T10:18:19;4.88;;;1.92;;
7308;SDS011;3695;53.330;9.876;2022-08-21T10:20:54;4.88;;;1.70;;
7308;SDS011;3695;53.330;9.876;2022-08-21T10:23:35;4.07;;;1.70;;
7308;SDS011;3695;53.330;9.876;2022-08-21T10:26:16;11.10;;;2.78;;
7308;SDS011;3695;53.330;9.876;2022-08-21T10:29:03;8.18;;;2.10;;
7308;SDS011;3695;53.330;9.876;2022-08-21T10:31:39;11.45;;;3.00;;
7308;SDS011;3695;53.330;9.876;2022-08-21T10:34:23;7.25;;;2.20;;
7308;SDS011;3695;53.330;9.876;2022-08-21T10:37:05;5.80;;;1.73;;
7308;SDS011;3695;53.330;9.876;2022-08-21T10:39:57;6.15;;;1.80;;
7308;SDS011;3695;53.330;9.876;2022-08-21T10:42:35;5.95;;;2.10;;
7308;SDS011;3695;53.330;9.876;2022-08-21T10:45:07;7.20;;;2.65;;
7308;SDS011;3695;53.330;9.876;2022-08-21T10:47:40;5.63;;;2.22;;
7308;SDS011;3695;53.330;9.876;2022-08-21T10:50:12;3.72;;;2.10;;
7308;SDS011;3695;53.330;9.876;2022-08-21T10:55:44;4.75;;;2.33;;
7308;SDS011;3695;53.330;9.876;2022-08-21T10:58:15;15.20;;;2.33;;
7308;SDS011;3695;53.330;9.876;2022-08-21T11:00:48;6.78;;;2.20;;
7308;SDS011;3695;53.330;9.876;2022-08-21T11:03:20;2.92;;;1.60;;
7308;SDS011;3695;53.330;9.876;2022-08-21T11:05:54;4.60;;;1.65;;
7308;SDS011;3695;53.330;9.876;2022-08-21T11:08:26;3.63;;;1.38;;
7308;SDS011;3695;53.330;9.876;2022-08-21T11:10:59;2.22;;;1.50;;
7308;SDS011;3695;53.330;9.876;2022-08-21T11:13:31;5.28;;;2.30;;
7308;SDS011;3695;53.330;9.876;2022-08-21T11:16:07;3.40;;;1.20;;
7308;SDS011;3695;53.330;9.876;2022-08-21T11:18:41;4.18;;;1.88;;
7308;SDS011;3695;53.330;9.876;2022-08-21T11:24:00;2.33;;;1.50;;
7308;SDS011;3695;53.330;9.876;2022-08-21T11:26:30;2.72;;;1.50;;
7308;SDS011;3695;53.330;9.876;2022-08-21T11:29:03;6.95;;;1.73;;
7308;SDS011;3695;53.330;9.876;2022-08-21T11:31:37;3.03;;;1.40;;
7308;SDS011;3695;53.330;9.876;2022-08-21T11:34:15;5.50;;;1.63;;
7308;SDS011;3695;53.330;9.876;2022-08-21T11:36:51;5.03;;;1.90;;
7308;SDS011;3695;53.330;9.876;2022-08-21T11:39:27;3.88;;;1.45;;
7308;SDS011;3695;53.330;9.876;2022-08-21T11:42:02;3.33;;;1.50;;
7308;SDS011;3695;53.330;9.876;2022-08-21T11:44:38;3.28;;;1.48;;
7308;SDS011;3695;53.330;9.876;2022-08-21T11:47:12;5.10;;;1.60;;
7308;SDS011;3695;53.330;9.876;2022-08-21T11:49:56;6.38;;;1.88;;
7308;SDS011;3695;53.330;9.876;2022-08-21T11:52:33;3.80;;;1.55;;
7308;SDS011;3695;53.330;9.876;2022-08-21T11:55:07;3.28;;;1.38;;
7308;SDS011;3695;53.330;9.876;2022-08-21T11:57:39;4.53;;;1.35;;
7308;SDS011;3695;53.330;9.876;2022-08-21T12:00:19;4.05;;;1.45;;
7308;SDS011;3695;53.330;9.876;2022-08-21T12:02:51;4.10;;;1.25;;
7308;SDS011;3695;53.330;9.876;2022-08-21T12:05:26;3.55;;;1.40;;
7308;SDS011;3695;53.330;9.876;2022-08-21T12:08:01;3.47;;;1.50;;
7308;SDS011;3695;53.330;9.876;2022-08-21T12:10:33;4.07;;;1.40;;
7308;SDS011;3695;53.330;9.876;2022-08-21T12:13:06;3.80;;;1.23;;
7308;SDS011;3695;53.330;9.876;2022-08-21T12:15:34;4.50;;;1.55;;
7308;SDS011;3695;53.330;9.876;2022-08-21T12:18:02;3.58;;;1.17;;
7308;SDS011;3695;53.330;9.876;2022-08-21T12:20:34;1.73;;;0.98;;
7308;SDS011;3695;53.330;9.876;2022-08-21T12:23:05;4.90;;;1.65;;
7308;SDS011;3695;53.330;9.876;2022-08-21T12:25:45;2.72;;;1.30;;
7308;SDS011;3695;53.330;9.876;2022-08-21T12:28:15;3.92;;;1.42;;
7308;SDS011;3695;53.330;9.876;2022-08-21T12:30:49;4.60;;;1.52;;
7308;SDS011;3695;53.330;9.876;2022-08-21T12:33:20;4.80;;;1.50;;
7308;SDS011;3695;53.330;9.876;2022-08-21T12:35:50;4.65;;;1.30;;
7308;SDS011;3695;53.330;9.876;2022-08-21T12:38:19;3.53;;;1.40;;
7308;SDS011;3695;53.330;9.876;2022-08-21T12:40:50;3.25;;;1.60;;
7308;SDS011;3695;53.330;9.876;2022-08-21T12:43:20;6.80;;;1.50;;
7308;SDS011;3695;53.330;9.876;2022-08-21T12:45:52;4.05;;;1.23;;
7308;SDS011;3695;53.330;9.876;2022-08-21T12:48:20;3.30;;;1.40;;
7308;SDS011;3695;53.330;9.876;2022-08-21T12:50:51;3.03;;;1.50;;
7308;SDS011;3695;53.330;9.876;2022-08-21T12:53:23;5.18;;;1.85;;
7308;SDS011;3695;53.330;9.876;2022-08-21T12:55:56;5.20;;;1.95;;
7308;SDS011;3695;53.330;9.876;2022-08-21T12:58:26;6.07;;;1.52;;
7308;SDS011;3695;53.330;9.876;2022-08-21T13:00:54;3.33;;;1.50;;
7308;SDS011;3695;53.330;9.876;2022-08-21T13:03:25;3.95;;;1.60;;
7308;SDS011;3695;53.330;9.876;2022-08-21T13:05:52;3.08;;;1.38;;
7308;SDS011;3695;53.330;9.876;2022-08-21T13:08:20;5.70;;;1.65;;
7308;SDS011;3695;53.330;9.876;2022-08-21T13:10:49;5.07;;;1.60;;
7308;SDS011;3695;53.330;9.876;2022-08-21T13:13:26;3.33;;;1.58;;
7308;SDS011;3695;53.330;9.876;2022-08-21T13:15:56;2.47;;;1.35;;
7308;SDS011;3695;53.330;9.876;2022-08-21T13:18:26;2.55;;;1.42;;
7308;SDS011;3695;53.330;9.876;2022-08-21T13:21:05;4.43;;;1.60;;
7308;SDS011;3695;53.330;9.876;2022-08-21T13:23:33;3.50;;;1.30;;
7308;SDS011;3695;53.330;9.876;2022-08-21T13:26:02;3.10;;;1.55;;
7308;SDS011;3695;53.330;9.876;2022-08-21T13:28:38;3.15;;;1.42;;
7308;SDS011;3695;53.330;9.876;2022-08-21T13:31:06;4.82;;;2.25;;
7308;SDS011;3695;53.330;9.876;2022-08-21T13:33:35;5.43;;;1.23;;
7308;SDS011;3695;53.330;9.876;2022-08-21T13:36:03;5.28;;;1.98;;
7308;SDS011;3695;53.330;9.876;2022-08-21T13:38:35;5.22;;;2.03;;
7308;SDS011;3695;53.330;9.876;2022-08-21T13:41:05;3.20;;;1.38;;
7308;SDS011;3695;53.330;9.876;2022-08-21T13:43:36;4.53;;;1.38;;
7308;SDS011;3695;53.330;9.876;2022-08-21T13:46:06;3.17;;;1.48;;
7308;SDS011;3695;53.330;9.876;2022-08-21T13:48:36;2.72;;;1.40;;
7308;SDS011;3695;53.330;9.876;2022-08-21T13:51:03;3.03;;;1.80;;
7308;SDS011;3695;53.330;9.876;2022-08-21T13:53:32;2.70;;;1.10;;
7308;SDS011;3695;53.330;9.876;2022-08-21T13:56:00;4.45;;;1.42;;
7308;SDS011;3695;53.330;9.876;2022-08-21T13:58:31;3.92;;;1.60;;
7308;SDS011;3695;53.330;9.876;2022-08-21T14:00:59;3.00;;;1.27;;
7308;SDS011;3695;53.330;9.876;2022-08-21T14:03:31;4.38;;;1.50;;
7308;SDS011;3695;53.330;9.876;2022-08-21T14:06:00;2.50;;;1.30;;
7308;SDS011;3695;53.330;9.876;2022-08-21T14:08:30;2.92;;;1.10;;
7308;SDS011;3695;53.330;9.876;2022-08-21T14:10:59;4.00;;;1.20;;
7308;SDS011;3695;53.330;9.876;2022-08-21T14:13:35;3.83;;;1.75;;
7308;SDS011;3695;53.330;9.876;2022-08-21T14:16:10;2.50;;;1.30;;
7308;SDS011;3695;53.330;9.876;2022-08-21T14:18:43;6.00;;;1.52;;
7308;SDS011;3695;53.330;9.876;2022-08-21T14:21:11;3.45;;;1.45;;
7308;SDS011;3695;53.330;9.876;2022-08-21T14:23:38;2.22;;;1.10;;
7308;SDS011;3695;53.330;9.876;2022-08-21T14:26:05;2.80;;;1.50;;
7308;SDS011;3695;53.330;9.876;2022-08-21T14:28:34;3.25;;;1.48;;
7308;SDS011;3695;53.330;9.876;2022-08-21T14:31:12;2.50;;;1.10;;
7308;SDS011;3695;53.330;9.876;2022-08-21T14:33:42;3.83;;;1.30;;
7308;SDS011;3695;53.330;9.876;2022-08-21T14:36:08;4.00;;;1.50;;
7308;SDS011;3695;53.330;9.876;2022-08-21T14:38:36;2.50;;;1.02;;
7308;SDS011;3695;53.330;9.876;2022-08-21T14:41:08;2.13;;;1.10;;
7308;SDS011;3695;53.330;9.876;2022-08-21T14:43:42;3.70;;;1.38;;
7308;SDS011;3695;53.330;9.876;2022-08-21T14:46:09;5.25;;;1.38;;
7308;SDS011;3695;53.330;9.876;2022-08-21T14:48:36;3.80;;;1.50;;
7308;SDS011;3695;53.330;9.876;2022-08-21T14:51:03;2.75;;;1.40;;
7308;SDS011;3695;53.330;9.876;2022-08-21T14:53:29;4.20;;;1.65;;
7308;SDS011;3695;53.330;9.876;2022-08-21T14:55:56;3.90;;;1.50;;
7308;SDS011;3695;53.330;9.876;2022-08-21T14:58:32;4.82;;;1.55;;
7308;SDS011;3695;53.330;9.876;2022-08-21T15:01:01;3.10;;;1.10;;
7308;SDS011;3695;53.330;9.876;2022-08-21T15:03:29;4.93;;;1.08;;
7308;SDS011;3695;53.330;9.876;2022-08-21T15:05:56;2.38;;;1.33;;
7308;SDS011;3695;53.330;9.876;2022-08-21T15:08:22;3.88;;;1.30;;
7308;SDS011;3695;53.330;9.876;2022-08-21T15:10:49;2.78;;;1.15;;
7308;SDS011;3695;53.330;9.876;2022-08-21T15:13:17;3.67;;;1.42;;
7308;SDS011;3695;53.330;9.876;2022-08-21T15:15:44;2.63;;;1.20;;
7308;SDS011;3695;53.330;9.876;2022-08-21T15:18:14;3.95;;;1.52;;
7308;SDS011;3695;53.330;9.876;2022-08-21T15:20:40;3.05;;;1.10;;
7308;SDS011;3695;53.330;9.876;2022-08-21T15:23:07;5.65;;;1.27;;
7308;SDS011;3695;53.330;9.876;2022-08-21T15:25:34;3.78;;;1.30;;
7308;SDS011;3695;53.330;9.876;2022-08-21T15:28:02;2.42;;;1.10;;
7308;SDS011;3695;53.330;9.876;2022-08-21T15:30:29;3.00;;;1.10;;
7308;SDS011;3695;53.330;9.876;2022-08-21T15:32:57;2.70;;;1.33;;